Time;durP1;ratioP1;P1;durP2;ratioP2;P2;SDS_P1;SDS_P2;PMS_P1;PMS_P2;Temp;Humidity;BMP_temperature;BMP_pressure;BME280_temperature;BME280_humidity;BME280_pressure;Samples;Min_cycle;Max_cycle;Signal;HPM_P1;HPM_P2
2021/05/18 00:02:29;;;;;;;20.95;12.10;;;;;;;16.60;85.28;100248.34;1749558;79;21288;-72
2021/05/18 00:05:02;;;;;;;19.52;11.25;;;;;;;16.54;85.61;100245.94;1749602;81;21253;-71
2021/05/18 00:07:36;;;;;;;17.42;11.53;;;;;;;16.50;85.95;100237.88;1749488;82;21340;-70
2021/05/18 00:13:02;;;;;;;22.70;13.28;;;;;;;16.61;86.59;100240.75;1748822;82;21257;-69
2021/05/18 00:15:34;;;;;;;21.12;12.25;;;;;;;16.63;86.45;100232.88;1747999;82;21339;-70
2021/05/18 00:18:07;;;;;;;21.42;11.30;;;;;;;16.62;86.54;100228.39;1748734;82;21248;-71
2021/05/18 00:20:40;;;;;;;21.37;11.43;;;;;;;16.64;86.59;100224.72;1749250;82;21249;-72
2021/05/18 00:23:13;;;;;;;17.55;11.85;;;;;;;16.66;86.61;100223.27;1748905;82;21181;-78
2021/05/18 00:25:47;;;;;;;21.40;12.88;;;;;;;16.72;86.67;100222.02;1748791;80;21347;-69
2021/05/18 00:28:20;;;;;;;19.32;11.78;;;;;;;16.82;86.55;100222.38;1746104;82;21420;-70
2021/05/18 00:30:52;;;;;;;17.33;11.47;;;;;;;16.89;86.32;100222.77;1747020;81;21212;-73
2021/05/18 00:33:25;;;;;;;18.60;11.73;;;;;;;16.91;86.00;100226.09;1747183;82;21366;-70
2021/05/18 00:35:59;;;;;;;16.60;11.33;;;;;;;16.92;86.00;100220.17;1746848;82;21346;-71
2021/05/18 00:38:32;;;;;;;20.00;13.35;;;;;;;16.96;85.86;100216.16;1747130;81;21286;-72
2021/05/18 00:41:04;;;;;;;19.77;11.37;;;;;;;17.01;85.71;100221.67;1747015;82;21331;-75
2021/05/18 00:43:39;;;;;;;18.62;11.73;;;;;;;16.97;85.43;100218.66;1746783;81;21302;-72
2021/05/18 00:46:12;;;;;;;21.77;11.63;;;;;;;16.94;85.57;100219.86;1746762;82;21633;-74
2021/05/18 00:48:56;;;;;;;23.70;12.33;;;;;;;16.95;85.75;100222.92;1746907;81;21386;-76
2021/05/18 00:51:20;;;;;;;21.42;13.70;;;;;;;17.00;85.69;100219.42;1745904;81;21386;-70
2021/05/18 00:53:54;;;;;;;15.50;12.18;;;;;;;17.03;85.66;100213.20;1746809;82;21349;-69
2021/05/18 00:59:04;;;;;;;15.53;10.93;;;;;;;17.09;85.48;100200.72;1752923;80;21201;-80
2021/05/18 01:01:37;;;;;;;14.98;11.35;;;;;;;17.12;85.35;100195.86;1768723;80;21185;-74
2021/05/18 01:04:13;;;;;;;22.48;12.37;;;;;;;17.09;85.45;100198.47;1779400;80;21825;-80
2021/05/18 01:06:44;;;;;;;13.32;8.93;;;;;;;17.13;85.52;100195.30;1779186;80;21213;-79
2021/05/18 01:09:17;;;;;;;14.45;8.20;;;;;;;17.09;85.66;100189.49;1779337;80;21266;-75
2021/05/18 01:11:51;;;;;;;15.68;8.28;;;;;;;17.02;86.25;100188.26;1779108;80;21268;-70
2021/05/18 01:14:24;;;;;;;11.70;8.28;;;;;;;16.97;86.79;100190.61;1777624;80;21541;-72
2021/05/18 01:16:56;;;;;;;15.53;10.15;;;;;;;16.96;87.20;100178.30;1779076;80;21233;-71
2021/05/18 01:19:31;;;;;;;16.60;9.15;;;;;;;16.92;87.52;100177.26;1779288;80;21809;-72
2021/05/18 01:22:04;;;;;;;18.77;10.35;;;;;;;16.91;87.97;100186.82;1779219;80;21201;-70
2021/05/18 01:24:38;;;;;;;16.05;10.88;;;;;;;16.87;88.41;100195.59;1743332;82;21244;-72
2021/05/18 01:27:16;;;;;;;;;;;;;;;16.87;88.77;100188.58;1724046;81;21868;-71
2021/05/18 01:29:49;;;;;;;21.45;12.20;;;;;;;16.91;89.05;100193.27;1745755;82;20190;-72
2021/05/18 01:32:25;;;;;;;16.47;12.27;;;;;;;16.91;89.26;100197.48;1723334;82;21662;-70
2021/05/18 01:34:58;;;;;;;22.37;12.35;;;;;;;16.92;89.53;100188.48;1745884;82;21229;-72
2021/05/18 01:37:32;;;;;;;14.83;10.75;;;;;;;16.94;89.75;100190.41;1723566;82;21303;-72
2021/05/18 01:42:46;;;;;;;16.45;11.73;;;;;;;16.98;89.88;100192.27;1746037;82;21299;-71
2021/05/18 01:42:58;;;;;;;19.23;11.88;;;;;;;16.99;89.92;100190.27;1738530;82;21291;-73
2021/05/18 01:45:30;;;;;;;18.57;12.40;;;;;;;17.01;90.07;100189.41;1745229;82;21236;-70
2021/05/18 01:48:10;;;;;;;19.80;13.58;;;;;;;17.03;90.19;100196.36;1745957;82;21805;-72
2021/05/18 01:50:49;;;;;;;17.40;11.05;;;;;;;17.05;90.26;100198.27;1745652;82;21192;-73
2021/05/18 01:53:22;;;;;;;21.45;11.83;;;;;;;17.11;90.37;100190.00;1745609;82;21499;-69
2021/05/18 01:58:40;;;;;;;17.35;11.10;;;;;;;17.27;90.05;100195.52;1688708;82;21400;-72
2021/05/18 02:01:28;;;;;;;17.35;10.10;;;;;;;17.28;89.78;100204.75;1727805;82;21165;-71
2021/05/18 02:04:01;;;;;;;16.32;10.13;;;;;;;17.28;89.88;100197.73;1761275;80;21231;-71
2021/05/18 02:06:41;;;;;;;14.30;9.80;;;;;;;17.31;89.69;100190.91;1777063;80;21225;-72
2021/05/18 02:09:17;;;;;;;16.40;10.98;;;;;;;17.30;89.54;100194.88;1774341;80;21374;-71
2021/05/18 02:11:51;;;;;;;16.90;11.57;;;;;;;17.29;89.57;100189.01;1776440;80;21153;-73
2021/05/18 02:14:28;;;;;;;15.60;9.43;;;;;;;17.28;89.49;100185.11;1719095;83;21379;-71
2021/05/18 02:25:36;;;;;;;19.75;11.63;;;;;;;17.25;89.48;100182.36;1745675;82;21373;-69
2021/05/18 02:28:10;;;;;;;18.67;9.75;;;;;;;17.27;89.94;100172.23;1708364;81;21222;-80
2021/05/18 02:30:47;;;;;;;14.87;10.32;;;;;;;17.31;89.65;100175.47;1756897;81;21354;-75
2021/05/18 02:33:20;;;;;;;16.67;9.68;;;;;;;17.27;89.37;100177.28;1752877;81;21813;-82
2021/05/18 02:35:53;;;;;;;13.00;8.58;;;;;;;17.23;89.38;100171.19;1752911;81;21463;-76
2021/05/18 02:38:26;;;;;;;11.37;9.20;;;;;;;17.21;89.44;100165.08;1786847;79;21325;-78
2021/05/18 02:40:59;;;;;;;17.30;9.43;;;;;;;17.17;89.53;100166.28;1773989;80;21260;-77
2021/05/18 02:43:49;;;;;;;13.25;9.55;;;;;;;17.15;89.65;100161.58;1799342;79;21382;-72
2021/05/18 02:51:42;;;;;;;15.32;9.13;;;;;;;17.12;90.20;100178.22;1802231;79;21198;-78
2021/05/18 02:54:19;;;;;;;25.10;10.70;;;;;;;17.15;90.38;100171.95;1812068;79;21330;-76
2021/05/18 02:57:01;;;;;;;19.23;10.93;;;;;;;17.17;90.47;100175.27;1810124;79;21188;-72
2021/05/18 02:59:34;;;;;;;18.62;10.15;;;;;;;17.22;90.55;100172.34;1792520;79;21360;-76
2021/05/18 03:02:06;;;;;;;21.15;10.88;;;;;;;17.28;90.44;100169.67;1794126;79;21388;-81
2021/05/18 03:04:39;;;;;;;18.15;8.63;;;;;;;17.29;90.35;100164.31;1791972;80;21218;-82
2021/05/18 03:07:12;;;;;;;18.23;10.93;;;;;;;17.35;90.38;100163.88;1791843;80;21344;-80
2021/05/18 03:09:46;;;;;;;21.70;12.07;;;;;;;17.37;90.17;100163.57;1791821;80;21383;-80
2021/05/18 03:12:19;;;;;;;15.80;9.68;;;;;;;17.37;90.16;100171.99;1785236;80;21174;-79
2021/05/18 03:14:53;;;;;;;18.90;9.88;;;;;;;17.37;90.15;100170.03;1785487;80;21225;-76
2021/05/18 03:17:26;;;;;;;19.20;9.63;;;;;;;17.39;90.14;100176.73;1785587;80;21233;-79
2021/05/18 03:19:59;;;;;;;17.87;10.40;;;;;;;17.40;90.14;100188.22;1785255;80;21162;-81
2021/05/18 03:22:32;;;;;;;15.35;10.53;;;;;;;17.42;90.13;100181.13;1785487;80;21228;-80
2021/05/18 03:25:06;;;;;;;19.90;10.55;;;;;;;17.44;90.15;100185.84;1785842;80;22526;-73
2021/05/18 03:27:39;;;;;;;17.67;9.85;;;;;;;17.49;90.14;100184.33;1785392;80;21261;-81
2021/05/18 03:35:54;;;;;;;11.90;8.20;;;;;;;17.64;89.69;100185.36;1791429;80;21206;-68
2021/05/18 03:38:31;;;;;;;17.50;10.90;;;;;;;17.72;89.62;100179.53;1804744;79;21365;-72
2021/05/18 03:41:06;;;;;;;21.25;9.40;;;;;;;17.77;89.34;100178.84;1802598;79;21857;-70
2021/05/18 04:03:04;;;;;;;15.72;8.20;;;;;;;18.23;87.19;100192.49;1766067;79;21191;-77
2021/05/18 04:11:40;;;;;;;21.95;7.70;;;;;;;18.81;87.92;100197.28;1795505;79;21379;-73
2021/05/18 04:19:26;;;;;;;18.15;5.92;;;;;;;19.40;83.43;100169.82;1782230;79;21357;-77
2021/05/18 04:41:37;;;;;;;15.83;7.72;;;;;;;22.36;71.18;100159.31;1779162;80;21284;-71
2021/05/18 04:49:58;;;;;;;12.90;5.70;;;;;;;22.76;67.52;100165.98;1779135;80;21805;-78
2021/05/18 04:52:25;;;;;;;15.98;5.35;;;;;;;22.69;66.42;100163.50;1775652;80;21158;-75
2021/05/18 04:55:30;;;;;;;15.13;5.42;;;;;;;22.47;66.06;100171.02;1779007;80;21324;-73
2021/05/18 05:03:07;;;;;;;10.93;5.58;;;;;;;22.01;67.51;100153.81;1715199;83;21724;-76
2021/05/18 05:08:30;;;;;;;12.70;5.95;;;;;;;22.49;68.48;100145.44;1722452;82;21717;-74
2021/05/18 05:16:29;;;;;;;21.48;6.15;;;;;;;23.21;66.12;100140.31;1699430;84;21339;-74
2021/05/18 05:18:58;;;;;;;15.48;6.40;;;;;;;23.13;64.68;100136.43;1749117;82;21879;-74
2021/05/18 05:21:32;;;;;;;20.77;6.50;;;;;;;22.92;65.03;100139.98;1746527;82;21198;-73
2021/05/18 05:24:07;;;;;;;13.85;7.70;;;;;;;22.69;65.28;100140.84;1757942;81;21737;-75
2021/05/18 05:26:40;;;;;;;18.80;6.85;;;;;;;22.44;66.64;100142.83;1791510;80;21259;-76
2021/05/18 05:29:12;;;;;;;17.15;5.20;;;;;;;22.25;68.00;100151.64;1786968;80;21239;-71
2021/05/18 05:31:50;;;;;;;17.12;7.00;;;;;;;22.11;69.15;100167.52;1788620;79;21245;-71
2021/05/18 05:34:23;;;;;;;11.63;6.55;;;;;;;21.99;69.94;100163.24;1810853;79;21326;-72
2021/05/18 05:37:10;;;;;;;21.65;6.47;;;;;;;21.93;70.42;100170.29;1808553;79;21402;-70
2021/05/18 05:39:43;;;;;;;12.53;6.25;;;;;;;21.81;70.52;100176.48;1813675;79;21321;-72
2021/05/18 05:42:16;;;;;;;11.85;6.22;;;;;;;21.65;70.73;100191.00;1814100;79;21377;-70
2021/05/18 05:44:49;;;;;;;12.75;5.50;;;;;;;21.45;70.54;100191.25;1813791;79;21187;-71
2021/05/18 05:47:22;;;;;;;11.07;4.47;;;;;;;21.27;70.84;100206.67;1785920;79;21310;-69
2021/05/18 05:49:56;;;;;;;10.48;4.70;;;;;;;21.10;71.03;100211.62;1781416;80;22024;-74
2021/05/18 05:52:28;;;;;;;8.30;4.23;;;;;;;20.99;71.21;100216.00;1781862;80;21888;-73
2021/05/18 05:55:01;;;;;;;9.73;4.60;;;;;;;20.86;71.49;100208.58;1780968;80;21198;-73
2021/05/18 05:57:33;;;;;;;9.33;3.62;;;;;;;20.74;71.96;100203.67;1781297;80;21253;-72
2021/05/18 06:00:09;;;;;;;6.90;3.45;;;;;;;20.59;72.59;100194.92;1781052;80;21909;-72
2021/05/18 06:02:42;;;;;;;12.63;4.60;;;;;;;20.48;73.11;100185.20;1781093;80;21197;-72
2021/05/18 06:05:17;;;;;;;14.70;5.17;;;;;;;20.34;73.62;100188.23;1781256;80;21237;-72
2021/05/18 06:07:49;;;;;;;13.53;4.67;;;;;;;20.23;74.27;100187.54;1781169;80;21201;-72
2021/05/18 06:43:17;;;;;;;9.68;4.72;;;;;;;18.97;79.91;100140.80;1813903;79;21326;-73
2021/05/18 06:48:23;;;;;;;12.65;5.50;;;;;;;19.07;80.39;100129.23;1785710;79;21214;-73
2021/05/18 06:50:57;;;;;;;10.68;5.20;;;;;;;19.15;80.42;100131.20;1813876;78;21171;-72
2021/05/18 06:53:29;;;;;;;13.30;5.60;;;;;;;19.25;80.47;100136.52;1813826;79;21317;-71
2021/05/18 06:56:03;;;;;;;16.75;6.60;;;;;;;19.29;80.28;100134.14;1813654;79;21729;-72
2021/05/18 07:01:11;;;;;;;11.03;6.62;;;;;;;19.24;80.47;100140.49;1813852;79;21330;-72
2021/05/18 07:03:49;;;;;;;12.28;6.00;;;;;;;19.21;80.98;100150.42;1814105;79;21346;-72
2021/05/18 07:09:09;;;;;;;12.43;7.62;;;;;;;19.23;80.97;100131.80;1813924;79;21334;-72
2021/05/18 07:11:42;;;;;;;10.53;7.43;;;;;;;19.34;81.09;100134.55;1814082;79;21373;-72
2021/05/18 07:14:16;;;;;;;;;;;;;;;19.41;81.11;100139.09;1816508;79;21286;-73
2021/05/18 07:16:49;;;;;;;14.53;6.97;;;;;;;19.44;81.02;100139.84;1813858;79;20176;-73
2021/05/18 07:19:22;;;;;;;15.70;8.40;;;;;;;19.43;80.90;100142.39;1813845;79;21171;-73
2021/05/18 07:21:55;;;;;;;24.37;8.60;;;;;;;19.39;80.11;100135.78;1814141;79;21310;-73
2021/05/18 07:24:30;;;;;;;13.95;8.45;;;;;;;19.29;80.05;100138.36;1813831;79;21184;-72
2021/05/18 07:27:03;;;;;;;15.18;8.70;;;;;;;19.24;79.76;100138.52;1813690;79;21366;-70
2021/05/18 07:29:37;;;;;;;11.30;8.23;;;;;;;19.11;79.75;100133.86;1813687;79;21683;-71
2021/05/18 07:32:09;;;;;;;8.50;6.05;;;;;;;19.05;79.98;100132.36;1813995;79;21804;-71
2021/05/18 07:34:44;;;;;;;10.63;6.47;;;;;;;19.00;79.29;100130.27;1813828;79;21369;-73
2021/05/18 07:37:16;;;;;;;7.87;5.13;;;;;;;18.82;79.20;100120.16;1814196;79;21199;-74
2021/05/18 07:39:51;;;;;;;9.28;5.47;;;;;;;18.82;79.20;100120.16;1814155;79;21822;-76
2021/05/18 07:42:23;;;;;;;7.97;4.30;;;;;;;18.77;79.40;100114.70;1813740;79;21410;-75
2021/05/18 07:45:09;;;;;;;5.55;3.77;;;;;;;18.68;79.51;100108.23;1813910;79;21310;-73
2021/05/18 07:47:44;;;;;;;5.50;3.27;;;;;;;18.63;78.84;100101.34;1813853;79;21333;-73
2021/05/18 07:50:31;;;;;;;5.28;3.30;;;;;;;18.61;78.98;100095.23;1814146;79;21335;-71
2021/05/18 08:07:08;;;;;;;12.50;3.33;;;;;;;17.89;81.16;100076.55;1813728;79;21369;-74
2021/05/18 08:09:57;;;;;;;8.30;3.05;;;;;;;17.92;81.49;100087.72;1813807;79;21330;-72
2021/05/18 08:12:27;;;;;;;10.58;3.50;;;;;;;17.94;81.46;100101.69;1781151;80;21165;-73
2021/05/18 08:17:45;;;;;;;12.00;3.83;;;;;;;17.98;81.07;100104.69;1780393;79;21347;-72
2021/05/18 10:34:58;;;;;;;10.20;7.05;;;;;;;19.50;74.24;100041.34;1694019;82;21320;-73
2021/05/18 10:37:43;;;;;;;14.80;8.30;;;;;;;19.40;75.05;100044.50;1737628;81;21308;-73
2021/05/18 10:40:28;;;;;;;17.98;8.38;;;;;;;19.33;75.69;100033.74;1713661;82;21367;-71
2021/05/18 10:43:30;;;;;;;14.58;7.28;;;;;;;19.31;76.41;100023.41;1774833;80;21287;-72
2021/05/18 10:46:17;;;;;;;18.27;8.78;;;;;;;19.35;76.74;100010.31;1782656;80;21890;-72
2021/05/18 10:48:56;;;;;;;14.93;7.50;;;;;;;19.44;76.54;100010.30;1747804;81;21349;-75
2021/05/18 10:51:40;;;;;;;13.95;7.28;;;;;;;19.56;76.68;100001.98;1719206;83;21300;-71
2021/05/18 10:54:28;;;;;;;14.28;7.62;;;;;;;19.72;76.70;99994.03;1743513;82;21701;-74
2021/05/18 10:57:13;;;;;;;17.15;7.20;;;;;;;19.95;76.22;99981.89;1777169;80;21885;-71
2021/05/18 10:59:53;;;;;;;13.18;7.22;;;;;;;20.07;75.09;99979.20;1782526;80;21885;-71
2021/05/18 11:02:38;;;;;;;19.55;8.45;;;;;;;20.12;74.49;99979.02;1773789;80;21340;-74
2021/05/18 11:05:15;;;;;;;;;;;;;;;20.21;74.05;99974.97;1763276;81;21780;-73
2021/05/18 11:07:47;;;;;;;14.50;7.45;;;;;;;20.24;73.42;99970.64;1773919;80;20290;-72
2021/05/18 11:10:21;;;;;;;13.70;7.47;;;;;;;20.21;73.30;99963.70;1781065;80;21304;-74
2021/05/18 11:12:54;;;;;;;16.87;7.20;;;;;;;20.18;73.61;99969.19;1775788;80;21375;-73
2021/05/18 11:15:27;;;;;;;12.28;6.72;;;;;;;20.17;73.54;99973.99;1779753;80;21205;-73
2021/05/18 11:18:00;;;;;;;15.15;7.33;;;;;;;20.18;73.33;99977.05;1778222;80;21232;-73
2021/05/18 11:26:12;;;;;;;11.70;5.67;;;;;;;20.11;72.30;99954.81;1778412;80;21205;-74
2021/05/18 11:28:55;;;;;;;13.40;7.58;;;;;;;20.11;73.52;99956.22;1786003;80;21260;-71
2021/05/18 11:31:26;;;;;;;20.25;6.97;;;;;;;20.11;73.78;99960.45;1783830;80;21186;-71
2021/05/18 11:34:04;;;;;;;10.28;5.87;;;;;;;20.04;74.02;99962.92;1780166;80;21229;-74
2021/05/18 11:36:40;;;;;;;9.18;5.78;;;;;;;20.01;73.74;99962.22;1777576;80;21237;-72
2021/05/18 11:39:16;;;;;;;12.85;6.00;;;;;;;20.01;73.08;99970.67;1775132;80;21798;-73
2021/05/18 11:41:54;;;;;;;13.83;6.05;;;;;;;20.01;73.02;99962.22;1754176;81;21347;-73
2021/05/18 11:44:32;;;;;;;12.10;5.75;;;;;;;20.05;72.68;99961.79;1780530;80;21237;-75
2021/05/18 11:47:07;;;;;;;8.75;5.90;;;;;;;20.05;71.25;99957.56;1747745;81;21192;-77
2021/05/18 11:49:47;;;;;;;11.35;5.30;;;;;;;20.03;71.34;99969.73;1757868;81;21327;-71
2021/05/18 11:52:19;;;;;;;8.00;5.97;;;;;;;20.10;71.68;99955.95;1764847;80;21197;-74
2021/05/18 11:54:52;;;;;;;10.20;6.70;;;;;;;20.22;71.30;99968.73;1778960;80;21829;-70
2021/05/18 11:57:25;;;;;;;6.67;5.97;;;;;;;20.25;70.24;99959.60;1772478;80;21336;-73
2021/05/18 11:59:58;;;;;;;12.70;5.93;;;;;;;20.18;70.04;99957.31;1780153;80;21379;-71
2021/05/18 12:02:30;;;;;;;10.50;5.45;;;;;;;20.12;70.30;99970.56;1780635;80;21324;-73
2021/05/18 12:05:07;;;;;;;7.28;5.28;;;;;;;20.02;70.68;99965.27;1779208;80;21339;-73
2021/05/18 12:07:40;;;;;;;13.75;5.87;;;;;;;19.99;71.04;99961.14;1780709;80;21410;-72
2021/05/18 12:10:28;;;;;;;10.93;7.28;;;;;;;19.95;71.26;99960.19;1772276;79;21188;-73
2021/05/18 12:13:05;;;;;;;15.18;6.33;;;;;;;19.92;71.54;99969.30;1769473;80;21169;-73
2021/05/18 12:15:39;;;;;;;11.53;5.85;;;;;;;19.91;71.95;99971.05;1775531;80;21177;-74
2021/05/18 12:18:16;;;;;;;14.18;6.37;;;;;;;19.89;73.36;99961.55;1775348;80;21347;-75
2021/05/18 12:20:49;;;;;;;11.70;6.70;;;;;;;19.89;74.30;99946.05;1774639;80;21719;-76
2021/05/18 12:23:22;;;;;;;12.25;7.33;;;;;;;19.92;74.85;99944.52;1747841;81;21312;-77
2021/05/18 12:25:56;;;;;;;;;;;;;;;19.96;75.04;99953.38;1780014;80;21335;-72
2021/05/18 12:28:28;;;;;;;11.88;6.67;;;;;;;20.04;74.78;99946.02;1740018;81;20543;-73
2021/05/18 12:31:02;;;;;;;9.00;6.70;;;;;;;20.08;74.73;99941.39;1739649;81;21327;-75
2021/05/18 12:33:38;;;;;;;10.95;6.97;;;;;;;20.08;74.78;99939.98;1723128;81;21205;-75
2021/05/18 12:36:11;;;;;;;19.45;7.47;;;;;;;20.11;75.02;99932.27;1788850;79;21269;-72
2021/05/18 12:38:44;;;;;;;10.63;6.47;;;;;;;20.19;75.09;99943.45;1780741;79;21250;-71
2021/05/18 12:41:18;;;;;;;11.15;7.15;;;;;;;20.27;74.73;99924.25;1752635;81;21219;-70
2021/05/18 12:43:57;;;;;;;16.10;8.43;;;;;;;20.33;74.37;99927.11;1752219;81;21284;-68
2021/05/18 12:46:27;;;;;;;12.07;9.08;;;;;;;20.43;73.58;99932.31;1749815;81;21841;-76
2021/05/18 12:49:00;;;;;;;18.12;10.58;;;;;;;20.50;73.27;99930.38;1758511;81;21219;-74
2021/05/18 12:51:32;;;;;;;16.77;9.53;;;;;;;20.56;73.32;99946.75;1761733;81;21320;-74
2021/05/18 12:54:07;;;;;;;15.63;7.87;;;;;;;20.63;73.43;99964.52;1753835;81;21899;-73
2021/05/18 12:56:41;;;;;;;8.28;7.35;;;;;;;20.59;73.27;99978.50;1762587;81;21387;-72
2021/05/18 12:59:16;;;;;;;12.43;6.95;;;;;;;20.43;71.79;99998.61;1761208;81;21206;-74
2021/05/18 13:04:24;;;;;;;7.05;3.42;;;;;;;19.99;70.31;99981.47;1754869;81;21333;-74
2021/05/18 13:07:14;;;;;;;5.92;2.20;;;;;;;19.67;68.81;99970.83;1754328;81;21193;-73
2021/05/18 13:10:07;;;;;;;2.50;1.42;;;;;;;19.33;66.98;99961.13;1760372;81;21313;-73
2021/05/18 13:12:41;;;;;;;8.05;2.35;;;;;;;18.96;67.22;99957.64;1759720;81;21206;-74
2021/05/18 13:15:29;;;;;;;2.62;1.77;;;;;;;18.68;67.35;99950.70;1755393;81;21326;-74
2021/05/18 13:18:17;;;;;;;2.17;1.60;;;;;;;18.46;67.13;99948.09;1745129;81;21184;-75
2021/05/18 13:20:56;;;;;;;3.55;1.80;;;;;;;18.30;67.20;99936.45;1749412;81;21333;-73
2021/05/18 13:23:58;;;;;;;3.35;1.75;;;;;;;18.16;66.50;99932.98;1751239;81;21231;-74
2021/05/18 13:26:26;;;;;;;4.45;2.08;;;;;;;18.04;65.63;99944.63;1756249;81;21844;-76
2021/05/18 13:29:17;;;;;;;6.25;1.98;;;;;;;17.94;67.97;99970.22;1759976;81;21276;-75
2021/05/18 13:31:53;;;;;;;12.85;2.00;;;;;;;17.94;68.18;99972.46;1759789;81;21323;-72
2021/05/18 13:34:27;;;;;;;7.42;1.80;;;;;;;17.87;69.26;99953.83;1752491;81;21213;-72
2021/05/18 13:36:59;;;;;;;15.00;2.08;;;;;;;17.78;70.36;99945.13;1677486;84;21272;-72
2021/05/18 13:39:32;;;;;;;8.75;3.22;;;;;;;17.72;70.41;99950.08;1762052;80;21834;-74
2021/05/18 13:42:05;;;;;;;17.10;4.10;;;;;;;17.66;71.44;99949.98;1783666;80;21118;-78
2021/05/18 13:44:38;;;;;;;14.33;2.37;;;;;;;17.61;72.46;99943.70;1776851;80;21339;-75
2021/05/18 13:47:11;;;;;;;;;;;;;;;17.63;73.09;99931.55;1795258;79;21169;-75
2021/05/18 13:49:46;;;;;;;6.25;2.30;;;;;;;17.58;73.71;99918.50;1793232;79;20226;-73
2021/05/18 13:52:21;;;;;;;12.68;3.20;;;;;;;17.49;74.39;99915.42;1773869;79;21173;-69
2021/05/18 13:54:56;;;;;;;10.55;2.15;;;;;;;17.45;75.04;99910.19;1756504;80;21324;-72
2021/05/18 13:57:28;;;;;;;6.50;2.62;;;;;;;17.49;75.70;99915.42;1756846;80;21896;-73
2021/05/18 14:00:03;;;;;;;6.22;2.25;;;;;;;17.53;76.11;99914.44;1730001;82;21730;-74
2021/05/18 14:02:36;;;;;;;7.05;2.45;;;;;;;17.60;76.45;99920.95;1749298;81;21387;-73
2021/05/18 14:05:17;;;;;;;11.55;3.83;;;;;;;17.64;76.66;99931.23;1741107;81;21315;-72
2021/05/18 14:11:08;;;;;;;8.23;2.42;;;;;;;17.66;77.91;99955.59;1783651;79;21373;-78
2021/05/18 14:13:44;;;;;;;10.00;3.10;;;;;;;17.63;78.08;99959.63;1783370;78;21178;-78
2021/05/18 14:16:24;;;;;;;13.85;3.60;;;;;;;17.61;78.19;99961.35;1788085;79;21316;-75
2021/05/18 14:18:58;;;;;;;8.00;4.05;;;;;;;17.65;78.71;99964.34;1725096;82;21348;-73
2021/05/18 14:21:30;;;;;;;9.10;3.15;;;;;;;17.71;79.22;99959.67;1740483;81;21346;-76
2021/05/18 14:24:13;;;;;;;12.95;7.40;;;;;;;17.81;79.29;99976.20;1749904;80;21330;-76
2021/05/18 14:26:43;;;;;;;28.17;11.97;;;;;;;17.85;79.16;99982.83;1698387;82;21419;-72
2021/05/18 14:29:16;;;;;;;11.63;5.67;;;;;;;17.92;78.55;100000.03;1750935;81;22042;-73
2021/05/18 14:31:49;;;;;;;20.20;5.70;;;;;;;17.92;78.80;100007.65;1741997;81;21250;-74
2021/05/18 14:34:23;;;;;;;12.95;4.62;;;;;;;17.94;78.74;100014.59;1748577;80;21422;-72
2021/05/18 14:36:55;;;;;;;8.73;3.40;;;;;;;17.99;78.27;99995.35;1786267;79;21309;-72
2021/05/18 14:45:01;;;;;;;5.92;3.05;;;;;;;18.33;78.28;99988.41;1791508;79;21303;-74
2021/05/18 14:47:57;;;;;;;;;;;;;;;;;;;;;
2021/05/18 14:56:15;;;;;;;12.53;3.15;;;;;;;18.67;77.82;99971.00;1791693;79;21166;-77
2021/05/18 14:59:18;;;;;;;5.03;2.90;;;;;;;18.68;76.23;99968.99;1792624;79;21351;-80
2021/05/18 15:01:52;;;;;;;6.80;3.50;;;;;;;18.73;76.08;99966.86;1787416;79;21301;-77
2021/05/18 15:04:38;;;;;;;3.98;2.37;;;;;;;18.75;76.08;99962.28;1783498;80;21171;-78
2021/05/18 15:07:21;;;;;;;9.85;2.92;;;;;;;18.76;76.33;99963.36;1793282;79;21316;-78
2021/05/18 15:09:55;;;;;;;6.60;3.00;;;;;;;18.77;75.77;99960.80;1791176;78;21350;-77
2021/05/18 15:12:28;;;;;;;9.98;3.15;;;;;;;18.75;75.28;99961.72;1784420;79;21416;-78
2021/05/18 15:15:02;;;;;;;7.95;3.37;;;;;;;18.80;74.90;99960.71;1789800;78;21228;-74
2021/05/18 15:17:36;;;;;;;5.55;3.20;;;;;;;18.82;74.45;99957.81;1790670;78;21667;-73
2021/05/18 15:20:09;;;;;;;;;;;;;;;18.86;74.13;99950.38;1796002;78;21281;-76
2021/05/18 15:22:42;;;;;;;6.55;2.27;;;;;;;18.92;73.36;99955.23;1787348;78;20282;-78
2021/05/18 15:25:16;;;;;;;5.60;2.00;;;;;;;18.94;71.75;99952.33;1782881;79;21885;-75
2021/05/18 15:27:48;;;;;;;5.70;1.80;;;;;;;18.93;70.87;99948.44;1790182;79;21325;-77
2021/05/18 15:30:21;;;;;;;6.08;2.05;;;;;;;18.94;70.25;99951.50;1792254;80;21332;-80
2021/05/18 15:32:54;;;;;;;6.80;2.20;;;;;;;18.97;70.36;99946.63;1792338;80;21813;-71
2021/05/18 15:35:27;;;;;;;13.53;6.87;;;;;;;19.01;70.33;99945.61;1796278;79;21260;-79
2021/05/18 15:38:00;;;;;;;18.07;10.40;;;;;;;19.03;69.62;99941.06;1796679;79;21829;-71
2021/05/18 15:40:34;;;;;;;7.30;4.85;;;;;;;19.07;69.72;99937.23;1799499;79;21782;-85
2021/05/18 15:43:08;;;;;;;9.47;5.50;;;;;;;19.06;68.27;99940.37;1799208;79;21194;-84
2021/05/18 15:45:44;;;;;;;3.60;2.27;;;;;;;19.03;67.62;99931.21;1792045;79;21300;-75
2021/05/18 15:48:18;;;;;;;6.00;2.25;;;;;;;18.97;66.67;99926.33;1797445;79;21807;-82
2021/05/18 15:50:53;;;;;;;6.62;3.50;;;;;;;18.90;66.37;99922.39;1808911;79;21415;-72
2021/05/18 15:53:28;;;;;;;4.45;2.90;;;;;;;18.86;66.65;99924.21;1814003;79;21830;-76
2021/05/18 15:56:08;;;;;;;6.10;2.60;;;;;;;18.81;66.86;99918.19;1807855;79;21321;-74
2021/05/18 15:58:41;;;;;;;15.78;2.85;;;;;;;18.77;67.35;99922.81;1798674;79;21351;-77
2021/05/18 16:01:20;;;;;;;7.47;4.60;;;;;;;18.71;67.25;99932.59;1765064;79;21213;-76
